首页
METAR-TAF:

METAR-TAF

机场 :

阿尔及尔胡阿里·布迈丁机场

阿爾及爾, 阿尔及利亚

纬度: 36-43N, 经度: 003-15E, 海拔: 25米

当前天气观测

该预报发布于32分钟前的08:30 UTC
风速3节,风向多变
温度 30°C
湿度 66%
气压 1011 hPa
能见度10公里或以上
1500米以下无云,无积雨云

METAR: DAAG 030830Z VRB03KT CAVOK 30/23 Q1011

时间: 10:02 (09:02 UTC)

预报

该预报发布于2小时和33分钟前的06:29 UTC
预报有效从03日的 06点(UTC)到 04日的 06点(UTC)
风速2节,风向多变
能见度10公里或以上
1500米以下无云,无积雨云
成为
从 03日的 08点(UTC)到 03日的 11点(UTC)
风速12节,风向北转东北
成为
从 03日的 19点(UTC)到 03日的 22点(UTC)
风速2节,风向多变
几率 40%
从 03日的 20点(UTC)到 04日的 06点(UTC)
能見度: 3000
轻雾
几率 30% :
短暂存在
从 04日的 00点(UTC)到 04日的 06点(UTC)
能見度: 0800
多云层高于1000英尺

TAF: DAAG 030629Z 0306/0406 VRB02KT CAVOK BECMG 0308/0311 02012KT BECMG 0319/0322 VRB02KT PROB40 0320/0406 3000 BR PROB30 TEMPO 0400/0406 0800 FG BKN010

超过4000个机场的气象观测和天气预报(METAR&TAF报告)。

可查询的气象台以黄色和红色小点在地图上表示。

将鼠标移到小点上方,可查看气象台名称。

然后点击查看天气观测和预报。

如需切换地图:点击带黑十字的绿色按钮放大地图;点击带横线的绿色按钮缩小地图;或者点击绿色箭头查看邻近地区的地图。


METAR-TAF: